ADDS METAR Data INFO
IDs: Format: Raw Decoded Include TAF

Data at: 2302 UTC 16 Jan 2018

KIAH 162253Z 36011KT 7SM -PLSN SCT017 OVC060 M03/M07 A3064 RMK AO2 SNB15PLB20 SLP376 P0000 T10331067 $